Aeroporto :
LOGIN :

Iscrizione | Disclaimer

   EN    FR    IT 

 










Sommario :    VFR   VFR Marginale   IFR   IFR Intensivo   IFR Molto Intensivo
Visibilità : 
Base nubi : 
>= 8 km
>= 3000ft
5 / 8 km
1000 / 3000 ft
1500m / 5 km
500 / 1000 ft
800 / 1500m
200 / 500 ft
< 800m
< 200 ft
Simboli :   Temporali  Nebbia  Neve Forte  Precipitazioni Forti  Vento > 20 kt
SIGMETs :   Varie  Temporali  Ghiacco  Turbolenza  Onda orograficha  Ceneri Vulcaniche






- Altitudine del aeroporto : 28 ft
- Codice IATA : OLA


ENOL - Ørland

ULTIMO METAR :
  • 182050Z 24016KT 9999 -SHRA FEW012CB BKN020 03/02 Q0988 TEMPO SHRA BKN012CB

METARs OBSOLETI :
  • 182020Z 24016KT 9999 -SHRA SCT914TCU BKN030 04/02 Q0988 TEMPO SHRA BKN012CB
  • 181950Z 24017KT 9999 VCSH FEW012 SCT025 BKN040 04/02 Q0988 NOSIG
  • 181920Z 24016KT 9999 VCSH FEW015TCU BKN035 04/02 Q0988 NOSIG
  • 181820Z 24012KT 9999 VCSH FEW015CB SCT025 BKN040 04/02 Q0987 NOSIG

TAF TAF ENOL
Valido dal 18 a 18 ore il 19 a 18 ore UTC


1818/1918 23012KT 9999 FEW012TCU BKN030
TEMPO 1818/1901 25015G25KT 4000 SHRA SCT005 BKN012CB
BECMG 1900/1903 02010KT
TEMPO 1901/1906 1500 SHRASN VV012
BECMG 1906/1908 VRB05KT
BECMG 1916/1918 13010KT



MetMap, La meteo Aeronautica in un colpo d'occhio ! - Copyright ORBIFLY Dicembre 2007 - Disclaimer

ORBIFLY MET'MAP TEAM :

Programmazione e sviluppo : Alexandra Zaïnal
Concezione : Baudouin d'Aumeries
Aiuto per la programmazione : Marc-Olivier Méhu
Supporto tecnico e logistico : Manuel Goepfert
Aiuto per la traduzione : Arnaldo La Scala

Contatto : metmap@orbifly.com




FONTI E CREDITI :

   NOAA